sensor_id;sensor_type;location;lat;lon;timestamp;P1;durP1;ratioP1;P2;durP2;ratioP2
7519;SDS011;3801;48.876;10.184;2023-09-07T00:01:41;4.93;;;3.80;;
7519;SDS011;3801;48.876;10.184;2023-09-07T00:06:46;4.10;;;3.50;;
7519;SDS011;3801;48.876;10.184;2023-09-07T00:11:51;4.00;;;3.60;;
7519;SDS011;3801;48.876;10.184;2023-09-07T00:16:54;4.47;;;4.03;;
7519;SDS011;3801;48.876;10.184;2023-09-07T00:22:00;6.57;;;3.90;;
7519;SDS011;3801;48.876;10.184;2023-09-07T00:27:04;5.00;;;4.00;;
7519;SDS011;3801;48.876;10.184;2023-09-07T00:32:09;4.07;;;3.67;;
7519;SDS011;3801;48.876;10.184;2023-09-07T00:37:14;4.87;;;4.37;;
7519;SDS011;3801;48.876;10.184;2023-09-07T00:42:18;5.13;;;3.77;;
7519;SDS011;3801;48.876;10.184;2023-09-07T00:47:21;5.73;;;3.77;;
7519;SDS011;3801;48.876;10.184;2023-09-07T00:52:27;6.23;;;3.53;;
7519;SDS011;3801;48.876;10.184;2023-09-07T00:57:31;5.63;;;4.33;;
7519;SDS011;3801;48.876;10.184;2023-09-07T01:02:37;4.20;;;3.80;;
7519;SDS011;3801;48.876;10.184;2023-09-07T01:07:43;5.90;;;4.20;;
7519;SDS011;3801;48.876;10.184;2023-09-07T01:12:49;4.57;;;4.07;;
7519;SDS011;3801;48.876;10.184;2023-09-07T01:17:53;6.00;;;4.37;;
7519;SDS011;3801;48.876;10.184;2023-09-07T01:23:12;6.37;;;4.13;;
7519;SDS011;3801;48.876;10.184;2023-09-07T01:28:15;5.37;;;4.07;;
7519;SDS011;3801;48.876;10.184;2023-09-07T01:33:19;5.37;;;4.23;;
7519;SDS011;3801;48.876;10.184;2023-09-07T01:38:24;4.50;;;4.10;;
7519;SDS011;3801;48.876;10.184;2023-09-07T01:43:27;5.73;;;3.87;;
7519;SDS011;3801;48.876;10.184;2023-09-07T01:48:31;4.43;;;3.93;;
7519;SDS011;3801;48.876;10.184;2023-09-07T01:53:36;4.73;;;4.20;;
7519;SDS011;3801;48.876;10.184;2023-09-07T01:58:39;5.30;;;4.27;;
7519;SDS011;3801;48.876;10.184;2023-09-07T02:03:43;5.30;;;4.00;;
7519;SDS011;3801;48.876;10.184;2023-09-07T02:08:49;9.20;;;4.00;;
7519;SDS011;3801;48.876;10.184;2023-09-07T02:13:52;5.23;;;4.20;;
7519;SDS011;3801;48.876;10.184;2023-09-07T02:19:00;5.37;;;3.83;;
7519;SDS011;3801;48.876;10.184;2023-09-07T02:24:06;7.70;;;4.40;;
7519;SDS011;3801;48.876;10.184;2023-09-07T02:29:10;4.47;;;4.07;;
7519;SDS011;3801;48.876;10.184;2023-09-07T02:34:13;4.70;;;4.10;;
7519;SDS011;3801;48.876;10.184;2023-09-07T02:39:18;6.63;;;4.20;;
7519;SDS011;3801;48.876;10.184;2023-09-07T02:44:23;5.20;;;4.20;;
7519;SDS011;3801;48.876;10.184;2023-09-07T02:49:27;4.87;;;4.40;;
7519;SDS011;3801;48.876;10.184;2023-09-07T02:54:32;5.73;;;4.37;;
7519;SDS011;3801;48.876;10.184;2023-09-07T02:59:35;4.97;;;4.47;;
7519;SDS011;3801;48.876;10.184;2023-09-07T03:04:39;5.27;;;4.70;;
7519;SDS011;3801;48.876;10.184;2023-09-07T03:09:44;5.00;;;4.50;;
7519;SDS011;3801;48.876;10.184;2023-09-07T03:14:47;6.80;;;4.73;;
7519;SDS011;3801;48.876;10.184;2023-09-07T03:19:53;6.20;;;4.17;;
7519;SDS011;3801;48.876;10.184;2023-09-07T03:24:58;6.67;;;4.20;;
7519;SDS011;3801;48.876;10.184;2023-09-07T03:30:02;4.50;;;4.10;;
7519;SDS011;3801;48.876;10.184;2023-09-07T03:35:08;6.53;;;4.23;;
7519;SDS011;3801;48.876;10.184;2023-09-07T03:40:14;5.33;;;4.67;;
7519;SDS011;3801;48.876;10.184;2023-09-07T03:45:18;7.43;;;4.30;;
7519;SDS011;3801;48.876;10.184;2023-09-07T03:50:22;5.40;;;4.27;;
7519;SDS011;3801;48.876;10.184;2023-09-07T03:55:27;9.77;;;4.50;;
7519;SDS011;3801;48.876;10.184;2023-09-07T04:00:31;4.80;;;4.30;;
7519;SDS011;3801;48.876;10.184;2023-09-07T04:05:36;7.60;;;4.90;;
7519;SDS011;3801;48.876;10.184;2023-09-07T04:10:42;5.83;;;4.83;;
7519;SDS011;3801;48.876;10.184;2023-09-07T04:15:45;6.03;;;4.30;;
7519;SDS011;3801;48.876;10.184;2023-09-07T04:20:50;4.77;;;4.20;;
7519;SDS011;3801;48.876;10.184;2023-09-07T04:26:04;5.70;;;4.50;;
7519;SDS011;3801;48.876;10.184;2023-09-07T04:31:07;4.87;;;4.13;;
7519;SDS011;3801;48.876;10.184;2023-09-07T04:36:11;8.77;;;6.80;;
7519;SDS011;3801;48.876;10.184;2023-09-07T04:41:20;6.17;;;5.10;;
7519;SDS011;3801;48.876;10.184;2023-09-07T04:46:25;5.93;;;5.03;;
7519;SDS011;3801;48.876;10.184;2023-09-07T04:51:28;5.00;;;4.20;;
7519;SDS011;3801;48.876;10.184;2023-09-07T04:56:36;7.10;;;4.60;;
7519;SDS011;3801;48.876;10.184;2023-09-07T05:01:40;5.50;;;4.23;;
7519;SDS011;3801;48.876;10.184;2023-09-07T05:06:43;5.60;;;4.40;;
7519;SDS011;3801;48.876;10.184;2023-09-07T05:11:48;5.93;;;5.03;;
7519;SDS011;3801;48.876;10.184;2023-09-07T05:16:52;4.40;;;4.00;;
7519;SDS011;3801;48.876;10.184;2023-09-07T05:21:57;5.33;;;4.77;;
7519;SDS011;3801;48.876;10.184;2023-09-07T05:27:02;6.87;;;5.00;;
7519;SDS011;3801;48.876;10.184;2023-09-07T05:32:09;5.67;;;4.60;;
7519;SDS011;3801;48.876;10.184;2023-09-07T05:37:13;6.07;;;4.70;;
7519;SDS011;3801;48.876;10.184;2023-09-07T05:42:18;6.83;;;4.53;;
7519;SDS011;3801;48.876;10.184;2023-09-07T05:47:21;7.50;;;4.30;;
7519;SDS011;3801;48.876;10.184;2023-09-07T05:52:28;4.87;;;3.87;;
7519;SDS011;3801;48.876;10.184;2023-09-07T05:57:33;4.93;;;4.10;;
7519;SDS011;3801;48.876;10.184;2023-09-07T06:02:38;4.83;;;4.33;;
7519;SDS011;3801;48.876;10.184;2023-09-07T06:07:44;4.57;;;4.17;;
7519;SDS011;3801;48.876;10.184;2023-09-07T06:12:52;4.70;;;3.77;;
7519;SDS011;3801;48.876;10.184;2023-09-07T06:17:56;5.27;;;4.57;;
7519;SDS011;3801;48.876;10.184;2023-09-07T06:23:00;5.80;;;4.70;;
7519;SDS011;3801;48.876;10.184;2023-09-07T06:28:05;7.10;;;4.53;;
7519;SDS011;3801;48.876;10.184;2023-09-07T06:33:10;6.83;;;4.90;;
7519;SDS011;3801;48.876;10.184;2023-09-07T06:38:14;6.07;;;4.87;;
7519;SDS011;3801;48.876;10.184;2023-09-07T06:43:19;5.33;;;4.57;;
7519;SDS011;3801;48.876;10.184;2023-09-07T06:48:23;5.90;;;4.30;;
7519;SDS011;3801;48.876;10.184;2023-09-07T06:53:26;5.00;;;4.50;;
7519;SDS011;3801;48.876;10.184;2023-09-07T06:58:52;4.87;;;4.37;;
7519;SDS011;3801;48.876;10.184;2023-09-07T07:03:56;4.37;;;3.97;;
7519;SDS011;3801;48.876;10.184;2023-09-07T07:09:01;7.80;;;4.10;;
7519;SDS011;3801;48.876;10.184;2023-09-07T07:14:06;5.77;;;3.77;;
7519;SDS011;3801;48.876;10.184;2023-09-07T07:19:11;4.40;;;4.00;;
7519;SDS011;3801;48.876;10.184;2023-09-07T07:24:14;5.17;;;3.70;;
7519;SDS011;3801;48.876;10.184;2023-09-07T07:29:19;4.30;;;3.90;;
7519;SDS011;3801;48.876;10.184;2023-09-07T07:34:22;4.43;;;4.03;;
7519;SDS011;3801;48.876;10.184;2023-09-07T07:39:26;6.67;;;4.00;;
7519;SDS011;3801;48.876;10.184;2023-09-07T07:44:31;4.23;;;3.87;;
7519;SDS011;3801;48.876;10.184;2023-09-07T07:49:34;5.83;;;4.00;;
7519;SDS011;3801;48.876;10.184;2023-09-07T07:54:39;4.50;;;4.00;;
7519;SDS011;3801;48.876;10.184;2023-09-07T07:59:43;5.87;;;4.30;;
7519;SDS011;3801;48.876;10.184;2023-09-07T08:04:47;4.85;;;3.78;;
7519;SDS011;3801;48.876;10.184;2023-09-07T08:09:51;5.10;;;3.97;;
7519;SDS011;3801;48.876;10.184;2023-09-07T08:14:56;6.25;;;4.38;;
7519;SDS011;3801;48.876;10.184;2023-09-07T08:20:00;7.45;;;4.20;;
7519;SDS011;3801;48.876;10.184;2023-09-07T08:25:05;4.25;;;3.55;;
7519;SDS011;3801;48.876;10.184;2023-09-07T08:30:11;4.63;;;4.22;;
7519;SDS011;3801;48.876;10.184;2023-09-07T08:35:14;4.80;;;4.30;;
7519;SDS011;3801;48.876;10.184;2023-09-07T08:40:19;4.60;;;4.07;;
7519;SDS011;3801;48.876;10.184;2023-09-07T08:45:25;5.00;;;3.97;;
7519;SDS011;3801;48.876;10.184;2023-09-07T08:50:29;5.50;;;4.30;;
7519;SDS011;3801;48.876;10.184;2023-09-07T08:55:33;5.90;;;4.30;;
7519;SDS011;3801;48.876;10.184;2023-09-07T09:00:38;4.78;;;4.13;;
7519;SDS011;3801;48.876;10.184;2023-09-07T09:05:45;8.27;;;4.68;;
7519;SDS011;3801;48.876;10.184;2023-09-07T09:10:58;4.28;;;3.88;;
7519;SDS011;3801;48.876;10.184;2023-09-07T09:16:03;4.50;;;4.10;;
7519;SDS011;3801;48.876;10.184;2023-09-07T09:21:06;4.82;;;4.22;;
7519;SDS011;3801;48.876;10.184;2023-09-07T09:26:10;5.78;;;4.25;;
7519;SDS011;3801;48.876;10.184;2023-09-07T09:31:16;7.10;;;3.88;;
7519;SDS011;3801;48.876;10.184;2023-09-07T09:36:20;5.93;;;4.47;;
7519;SDS011;3801;48.876;10.184;2023-09-07T09:41:24;5.20;;;4.40;;
7519;SDS011;3801;48.876;10.184;2023-09-07T09:46:29;4.30;;;3.85;;
7519;SDS011;3801;48.876;10.184;2023-09-07T09:51:34;6.85;;;4.13;;
7519;SDS011;3801;48.876;10.184;2023-09-07T09:56:38;7.05;;;4.47;;
7519;SDS011;3801;48.876;10.184;2023-09-07T10:01:44;4.45;;;4.03;;
7519;SDS011;3801;48.876;10.184;2023-09-07T10:06:53;4.50;;;4.10;;
7519;SDS011;3801;48.876;10.184;2023-09-07T10:11:57;5.15;;;3.97;;
7519;SDS011;3801;48.876;10.184;2023-09-07T10:17:03;5.15;;;3.78;;
7519;SDS011;3801;48.876;10.184;2023-09-07T10:22:06;4.65;;;3.60;;
7519;SDS011;3801;48.876;10.184;2023-09-07T10:27:09;5.05;;;3.70;;
7519;SDS011;3801;48.876;10.184;2023-09-07T10:32:14;4.05;;;3.47;;
7519;SDS011;3801;48.876;10.184;2023-09-07T10:37:27;4.55;;;3.47;;
7519;SDS011;3801;48.876;10.184;2023-09-07T10:42:31;4.40;;;3.53;;
7519;SDS011;3801;48.876;10.184;2023-09-07T10:47:36;5.93;;;3.78;;
7519;SDS011;3801;48.876;10.184;2023-09-07T10:52:43;3.70;;;3.40;;
7519;SDS011;3801;48.876;10.184;2023-09-07T10:57:47;8.52;;;3.78;;
7519;SDS011;3801;48.876;10.184;2023-09-07T11:02:52;5.63;;;3.70;;
7519;SDS011;3801;48.876;10.184;2023-09-07T11:07:56;5.43;;;4.30;;
7519;SDS011;3801;48.876;10.184;2023-09-07T11:13:03;4.65;;;3.85;;
7519;SDS011;3801;48.876;10.184;2023-09-07T11:18:08;5.22;;;3.80;;
7519;SDS011;3801;48.876;10.184;2023-09-07T11:23:12;6.55;;;3.95;;
7519;SDS011;3801;48.876;10.184;2023-09-07T11:28:16;8.35;;;3.90;;
7519;SDS011;3801;48.876;10.184;2023-09-07T11:33:22;4.28;;;3.88;;
7519;SDS011;3801;48.876;10.184;2023-09-07T11:38:28;5.28;;;3.42;;
7519;SDS011;3801;48.876;10.184;2023-09-07T11:43:31;6.10;;;3.92;;
7519;SDS011;3801;48.876;10.184;2023-09-07T11:48:37;5.35;;;4.10;;
7519;SDS011;3801;48.876;10.184;2023-09-07T11:53:40;4.72;;;3.67;;
7519;SDS011;3801;48.876;10.184;2023-09-07T11:58:44;5.97;;;4.00;;
7519;SDS011;3801;48.876;10.184;2023-09-07T12:03:49;4.50;;;3.55;;
7519;SDS011;3801;48.876;10.184;2023-09-07T12:08:58;3.95;;;3.60;;
7519;SDS011;3801;48.876;10.184;2023-09-07T12:14:02;4.05;;;3.40;;
7519;SDS011;3801;48.876;10.184;2023-09-07T12:19:07;5.25;;;3.88;;
7519;SDS011;3801;48.876;10.184;2023-09-07T12:24:10;6.50;;;3.65;;
7519;SDS011;3801;48.876;10.184;2023-09-07T12:29:14;3.88;;;3.47;;
7519;SDS011;3801;48.876;10.184;2023-09-07T12:34:19;4.05;;;3.63;;
7519;SDS011;3801;48.876;10.184;2023-09-07T12:39:22;4.47;;;3.28;;
7519;SDS011;3801;48.876;10.184;2023-09-07T12:44:25;5.28;;;3.30;;
7519;SDS011;3801;48.876;10.184;2023-09-07T12:49:30;4.85;;;3.80;;
7519;SDS011;3801;48.876;10.184;2023-09-07T12:54:34;3.42;;;3.13;;
7519;SDS011;3801;48.876;10.184;2023-09-07T12:59:37;3.53;;;3.20;;
7519;SDS011;3801;48.876;10.184;2023-09-07T13:04:42;4.95;;;3.90;;
7519;SDS011;3801;48.876;10.184;2023-09-07T13:09:45;5.05;;;3.75;;
7519;SDS011;3801;48.876;10.184;2023-09-07T13:14:49;4.43;;;3.95;;
7519;SDS011;3801;48.876;10.184;2023-09-07T13:19:54;4.20;;;3.63;;
7519;SDS011;3801;48.876;10.184;2023-09-07T13:24:57;4.25;;;3.70;;
7519;SDS011;3801;48.876;10.184;2023-09-07T13:30:00;5.25;;;3.85;;
7519;SDS011;3801;48.876;10.184;2023-09-07T13:35:08;4.43;;;3.55;;
7519;SDS011;3801;48.876;10.184;2023-09-07T13:40:12;4.60;;;3.28;;
7519;SDS011;3801;48.876;10.184;2023-09-07T13:45:16;4.65;;;3.60;;
7519;SDS011;3801;48.876;10.184;2023-09-07T13:50:21;4.90;;;3.60;;
7519;SDS011;3801;48.876;10.184;2023-09-07T13:55:25;3.95;;;3.47;;
7519;SDS011;3801;48.876;10.184;2023-09-07T14:00:28;5.15;;;3.70;;
7519;SDS011;3801;48.876;10.184;2023-09-07T14:05:33;4.13;;;3.22;;
7519;SDS011;3801;48.876;10.184;2023-09-07T14:10:37;4.40;;;3.75;;
7519;SDS011;3801;48.876;10.184;2023-09-07T14:15:40;3.53;;;3.20;;
7519;SDS011;3801;48.876;10.184;2023-09-07T14:20:45;4.05;;;3.47;;
7519;SDS011;3801;48.876;10.184;2023-09-07T14:25:48;5.20;;;3.30;;
7519;SDS011;3801;48.876;10.184;2023-09-07T14:30:52;3.80;;;3.28;;
7519;SDS011;3801;48.876;10.184;2023-09-07T14:35:57;4.22;;;3.55;;
7519;SDS011;3801;48.876;10.184;2023-09-07T14:41:01;3.97;;;3.00;;
7519;SDS011;3801;48.876;10.184;2023-09-07T14:46:05;3.50;;;3.20;;
7519;SDS011;3801;48.876;10.184;2023-09-07T14:51:10;6.15;;;3.42;;
7519;SDS011;3801;48.876;10.184;2023-09-07T14:56:13;4.80;;;3.47;;
7519;SDS011;3801;48.876;10.184;2023-09-07T15:01:17;3.60;;;3.30;;
7519;SDS011;3801;48.876;10.184;2023-09-07T15:06:21;4.50;;;3.63;;
7519;SDS011;3801;48.876;10.184;2023-09-07T15:11:26;5.57;;;3.13;;
7519;SDS011;3801;48.876;10.184;2023-09-07T15:16:29;4.45;;;3.30;;
7519;SDS011;3801;48.876;10.184;2023-09-07T15:21:34;5.70;;;3.55;;
7519;SDS011;3801;48.876;10.184;2023-09-07T15:26:41;4.00;;;3.60;;
7519;SDS011;3801;48.876;10.184;2023-09-07T15:31:45;4.60;;;3.47;;
7519;SDS011;3801;48.876;10.184;2023-09-07T15:36:50;4.95;;;3.33;;
7519;SDS011;3801;48.876;10.184;2023-09-07T15:41:53;3.60;;;3.30;;
7519;SDS011;3801;48.876;10.184;2023-09-07T15:46:57;4.10;;;3.70;;
7519;SDS011;3801;48.876;10.184;2023-09-07T15:57:29;5.57;;;3.30;;
7519;SDS011;3801;48.876;10.184;2023-09-07T16:02:32;4.55;;;3.30;;
7519;SDS011;3801;48.876;10.184;2023-09-07T16:07:36;5.60;;;3.42;;
7519;SDS011;3801;48.876;10.184;2023-09-07T16:12:40;4.88;;;3.60;;
7519;SDS011;3801;48.876;10.184;2023-09-07T16:17:44;4.72;;;3.30;;
7519;SDS011;3801;48.876;10.184;2023-09-07T16:22:47;5.05;;;3.45;;
7519;SDS011;3801;48.876;10.184;2023-09-07T16:27:52;4.43;;;3.40;;
7519;SDS011;3801;48.876;10.184;2023-09-07T16:32:57;3.83;;;3.47;;
7519;SDS011;3801;48.876;10.184;2023-09-07T16:38:01;7.47;;;3.38;;
7519;SDS011;3801;48.876;10.184;2023-09-07T16:43:05;3.83;;;3.25;;
7519;SDS011;3801;48.876;10.184;2023-09-07T16:48:09;4.50;;;3.42;;
7519;SDS011;3801;48.876;10.184;2023-09-07T16:53:12;3.70;;;3.30;;
7519;SDS011;3801;48.876;10.184;2023-09-07T16:58:17;6.78;;;3.30;;
7519;SDS011;3801;48.876;10.184;2023-09-07T17:03:22;3.53;;;3.22;;
7519;SDS011;3801;48.876;10.184;2023-09-07T17:08:26;4.30;;;3.42;;
7519;SDS011;3801;48.876;10.184;2023-09-07T17:13:31;4.60;;;3.22;;
7519;SDS011;3801;48.876;10.184;2023-09-07T17:18:35;3.75;;;3.35;;
7519;SDS011;3801;48.876;10.184;2023-09-07T17:23:39;5.85;;;3.30;;
7519;SDS011;3801;48.876;10.184;2023-09-07T17:28:44;6.28;;;3.45;;
7519;SDS011;3801;48.876;10.184;2023-09-07T17:33:47;6.03;;;3.22;;
7519;SDS011;3801;48.876;10.184;2023-09-07T17:38:51;6.70;;;3.30;;
7519;SDS011;3801;48.876;10.184;2023-09-07T17:43:58;4.18;;;3.40;;
7519;SDS011;3801;48.876;10.184;2023-09-07T17:49:02;5.28;;;3.30;;
7519;SDS011;3801;48.876;10.184;2023-09-07T17:54:05;4.90;;;3.38;;
7519;SDS011;3801;48.876;10.184;2023-09-07T17:59:10;5.20;;;3.38;;
7519;SDS011;3801;48.876;10.184;2023-09-07T18:04:14;6.05;;;3.33;;
7519;SDS011;3801;48.876;10.184;2023-09-07T18:09:17;4.82;;;3.30;;
7519;SDS011;3801;48.876;10.184;2023-09-07T18:14:22;5.07;;;3.70;;
7519;SDS011;3801;48.876;10.184;2023-09-07T18:19:26;5.22;;;4.00;;
7519;SDS011;3801;48.876;10.184;2023-09-07T18:24:29;5.40;;;3.72;;
7519;SDS011;3801;48.876;10.184;2023-09-07T18:29:36;4.65;;;3.22;;
7519;SDS011;3801;48.876;10.184;2023-09-07T18:34:39;5.75;;;3.90;;
7519;SDS011;3801;48.876;10.184;2023-09-07T18:39:43;4.47;;;3.58;;
7519;SDS011;3801;48.876;10.184;2023-09-07T18:44:50;3.80;;;3.40;;
7519;SDS011;3801;48.876;10.184;2023-09-07T18:49:53;4.57;;;3.85;;
7519;SDS011;3801;48.876;10.184;2023-09-07T18:54:57;6.20;;;3.97;;
7519;SDS011;3801;48.876;10.184;2023-09-07T19:00:01;6.25;;;4.30;;
7519;SDS011;3801;48.876;10.184;2023-09-07T19:05:07;4.07;;;3.65;;
7519;SDS011;3801;48.876;10.184;2023-09-07T19:10:11;5.67;;;3.70;;
7519;SDS011;3801;48.876;10.184;2023-09-07T19:15:16;6.05;;;4.35;;
7519;SDS011;3801;48.876;10.184;2023-09-07T19:20:20;5.47;;;3.57;;
7519;SDS011;3801;48.876;10.184;2023-09-07T19:25:24;4.70;;;4.00;;
7519;SDS011;3801;48.876;10.184;2023-09-07T19:30:29;5.10;;;3.67;;
7519;SDS011;3801;48.876;10.184;2023-09-07T19:35:34;5.50;;;3.67;;
7519;SDS011;3801;48.876;10.184;2023-09-07T19:40:38;7.23;;;3.80;;
7519;SDS011;3801;48.876;10.184;2023-09-07T19:45:45;6.87;;;3.73;;
7519;SDS011;3801;48.876;10.184;2023-09-07T19:50:48;4.80;;;4.10;;
7519;SDS011;3801;48.876;10.184;2023-09-07T19:55:52;5.97;;;3.93;;
7519;SDS011;3801;48.876;10.184;2023-09-07T20:00:58;5.33;;;4.00;;
7519;SDS011;3801;48.876;10.184;2023-09-07T20:06:02;5.27;;;4.10;;
7519;SDS011;3801;48.876;10.184;2023-09-07T20:11:06;4.03;;;3.67;;
7519;SDS011;3801;48.876;10.184;2023-09-07T20:16:11;5.07;;;4.10;;
7519;SDS011;3801;48.876;10.184;2023-09-07T20:21:17;6.57;;;4.00;;
7519;SDS011;3801;48.876;10.184;2023-09-07T20:26:20;5.27;;;3.93;;
7519;SDS011;3801;48.876;10.184;2023-09-07T20:31:25;4.23;;;3.70;;
7519;SDS011;3801;48.876;10.184;2023-09-07T20:36:29;5.93;;;4.20;;
7519;SDS011;3801;48.876;10.184;2023-09-07T20:41:32;7.37;;;4.43;;
7519;SDS011;3801;48.876;10.184;2023-09-07T20:46:37;4.87;;;3.90;;
7519;SDS011;3801;48.876;10.184;2023-09-07T20:51:41;6.57;;;4.10;;
7519;SDS011;3801;48.876;10.184;2023-09-07T20:56:44;6.03;;;4.00;;
7519;SDS011;3801;48.876;10.184;2023-09-07T21:01:49;5.93;;;4.43;;
7519;SDS011;3801;48.876;10.184;2023-09-07T21:06:53;5.40;;;4.47;;
7519;SDS011;3801;48.876;10.184;2023-09-07T21:11:57;5.73;;;4.43;;
7519;SDS011;3801;48.876;10.184;2023-09-07T21:17:02;7.93;;;4.40;;
7519;SDS011;3801;48.876;10.184;2023-09-07T21:22:05;5.27;;;4.13;;
7519;SDS011;3801;48.876;10.184;2023-09-07T21:27:09;6.43;;;4.60;;
7519;SDS011;3801;48.876;10.184;2023-09-07T21:32:14;6.17;;;4.47;;
7519;SDS011;3801;48.876;10.184;2023-09-07T21:37:17;4.87;;;4.23;;
7519;SDS011;3801;48.876;10.184;2023-09-07T21:42:21;5.47;;;4.30;;
7519;SDS011;3801;48.876;10.184;2023-09-07T21:47:26;5.67;;;4.20;;
7519;SDS011;3801;48.876;10.184;2023-09-07T21:52:30;6.27;;;4.23;;
7519;SDS011;3801;48.876;10.184;2023-09-07T21:57:33;7.40;;;4.23;;
7519;SDS011;3801;48.876;10.184;2023-09-07T22:02:38;6.33;;;4.23;;
7519;SDS011;3801;48.876;10.184;2023-09-07T22:07:42;7.13;;;4.73;;
7519;SDS011;3801;48.876;10.184;2023-09-07T22:12:46;8.70;;;5.27;;
7519;SDS011;3801;48.876;10.184;2023-09-07T22:17:52;5.17;;;4.67;;
7519;SDS011;3801;48.876;10.184;2023-09-07T22:22:55;6.03;;;4.77;;
7519;SDS011;3801;48.876;10.184;2023-09-07T22:27:59;5.73;;;4.90;;
7519;SDS011;3801;48.876;10.184;2023-09-07T22:33:04;6.03;;;4.67;;
7519;SDS011;3801;48.876;10.184;2023-09-07T22:38:08;7.70;;;5.13;;
7519;SDS011;3801;48.876;10.184;2023-09-07T22:43:11;6.40;;;5.23;;
7519;SDS011;3801;48.876;10.184;2023-09-07T22:48:16;6.50;;;5.57;;
7519;SDS011;3801;48.876;10.184;2023-09-07T22:53:20;6.13;;;5.53;;
7519;SDS011;3801;48.876;10.184;2023-09-07T22:58:24;8.03;;;5.63;;
7519;SDS011;3801;48.876;10.184;2023-09-07T23:03:29;6.30;;;5.70;;
7519;SDS011;3801;48.876;10.184;2023-09-07T23:08:33;6.63;;;5.30;;
7519;SDS011;3801;48.876;10.184;2023-09-07T23:13:37;7.93;;;6.17;;
7519;SDS011;3801;48.876;10.184;2023-09-07T23:18:42;7.30;;;5.70;;
7519;SDS011;3801;48.876;10.184;2023-09-07T23:23:45;7.07;;;5.63;;
7519;SDS011;3801;48.876;10.184;2023-09-07T23:28:49;7.70;;;5.40;;
7519;SDS011;3801;48.876;10.184;2023-09-07T23:33:53;5.80;;;5.10;;
7519;SDS011;3801;48.876;10.184;2023-09-07T23:38:57;7.03;;;5.63;;
7519;SDS011;3801;48.876;10.184;2023-09-07T23:44:01;7.50;;;5.43;;
7519;SDS011;3801;48.876;10.184;2023-09-07T23:49:06;8.50;;;5.77;;
7519;SDS011;3801;48.876;10.184;2023-09-07T23:54:09;5.80;;;5.20;;
7519;SDS011;3801;48.876;10.184;2023-09-07T23:59:13;5.70;;;4.87;;
